Aviation Digital Data Service (ADDS)

Output produced by METARs form (1158 UTC 26 March 2019)
found at http://www.aviationweather.gov/metar/data/
 
METAR text: EDDG 261150Z 27009KT 9999 FEW014 BKN037 07/05 Q1029 NOSIG
Conditions at: EDDG (MUENSTER/OSNABRU, DE) observed 1150 UTC 26 March 2019
Temperature: 7.0°C (45°F)
Dewpoint: 5.0°C (41°F) [RH = 87%]
Pressure (altimeter): 30.38 inches Hg (1029.0 mb)
Winds: from the W (270 degrees) at 10 MPH (9 knots; 4.6 m/s)
Visibility: 6 or more miles (10+ km)
Ceiling: 3700 feet AGL
Clouds: few clouds at 1400 feet AGL
broken clouds at 3700 feet AGL
Weather: no significant weather observed at this time

METAR text: EDDG 261120Z 28013KT 6000 -RA FEW016 BKN020 07/04 Q1029 NOSIG
Conditions at: EDDG (MUENSTER/OSNABRU, DE) observed 1120 UTC 26 March 2019
Temperature: 7.0°C (45°F)
Dewpoint: 4.0°C (39°F) [RH = 81%]
Pressure (altimeter): 30.38 inches Hg (1029.0 mb)
Winds: from the W (280 degrees) at 15 MPH (13 knots; 6.7 m/s)
Visibility: 4 miles ( 6 km)
Ceiling: 2000 feet AGL
Clouds: few clouds at 1600 feet AGL
broken clouds at 2000 feet AGL
Weather: -RA  (light rain)

METAR text: EDDG 261050Z 27012KT 9999 -RA FEW020 BKN027 08/04 Q1029 NOSIG
Conditions at: EDDG (MUENSTER/OSNABRU, DE) observed 1050 UTC 26 March 2019
Temperature: 8.0°C (46°F)
Dewpoint: 4.0°C (39°F) [RH = 76%]
Pressure (altimeter): 30.38 inches Hg (1029.0 mb)
Winds: from the W (270 degrees) at 14 MPH (12 knots; 6.2 m/s)
Visibility: 6 or more miles (10+ km)
Ceiling: 2700 feet AGL
Clouds: few clouds at 2000 feet AGL
broken clouds at 2700 feet AGL
Weather: -RA  (light rain)

METAR text: EDDG 261020Z 25010KT 9999 FEW020 BKN030 07/04 Q1030 NOSIG
Conditions at: EDDG (MUENSTER/OSNABRU, DE) observed 1020 UTC 26 March 2019
Temperature: 7.0°C (45°F)
Dewpoint: 4.0°C (39°F) [RH = 81%]
Pressure (altimeter): 30.41 inches Hg (1030.0 mb)
Winds: from the WSW (250 degrees) at 12 MPH (10 knots; 5.1 m/s)
Visibility: 6 or more miles (10+ km)
Ceiling: 3000 feet AGL
Clouds: few clouds at 2000 feet AGL
broken clouds at 3000 feet AGL
Weather: no significant weather observed at this time

METAR text: EDDG 260950Z 28006KT 9999 FEW015 BKN019 06/04 Q1030 NOSIG
Conditions at: EDDG (MUENSTER/OSNABRU, DE) observed 0950 UTC 26 March 2019
Temperature: 6.0°C (43°F)
Dewpoint: 4.0°C (39°F) [RH = 87%]
Pressure (altimeter): 30.41 inches Hg (1030.0 mb)
Winds: from the W (280 degrees) at 7 MPH (6 knots; 3.1 m/s)
Visibility: 6 or more miles (10+ km)
Ceiling: 1900 feet AGL
Clouds: few clouds at 1500 feet AGL
broken clouds at 1900 feet AGL
Weather: no significant weather observed at this time

METAR text: EDDG 260920Z 26008KT 9000 -RA BKN019 06/03 Q1030 NOSIG
Conditions at: EDDG (MUENSTER/OSNABRU, DE) observed 0920 UTC 26 March 2019
Temperature: 6.0°C (43°F)
Dewpoint: 3.0°C (37°F) [RH = 81%]
Pressure (altimeter): 30.41 inches Hg (1030.0 mb)
Winds: from the W (260 degrees) at 9 MPH (8 knots; 4.1 m/s)
Visibility: 6 miles ( 9 km)
Ceiling: 1900 feet AGL
Clouds: broken clouds at 1900 feet AGL
Weather: -RA  (light rain)

METAR text: EDDG 260850Z 28009KT 260V320 9999 -SHRA FEW011TCU BKN027 06/02 Q1030 NOSIG
Conditions at: EDDG (MUENSTER/OSNABRU, DE) observed 0850 UTC 26 March 2019
Temperature: 6.0°C (43°F)
Dewpoint: 2.0°C (36°F) [RH = 75%]
Pressure (altimeter): 30.41 inches Hg (1030.0 mb)
Winds: from the W (280 degrees) at 10 MPH (9 knots; 4.6 m/s)
Visibility: 6 or more miles (10+ km)
Ceiling: 2700 feet AGL
Clouds: few clouds at 1100 feet AGL
broken clouds at 2700 feet AGL
Weather: -SHRA  (light rain showers)

METAR text: EDDG 260820Z 28012KT 250V310 9999 -SHRA FEW014TCU BKN035 07/02 Q1030 NOSIG
Conditions at: EDDG (MUENSTER/OSNABRU, DE) observed 0820 UTC 26 March 2019
Temperature: 7.0°C (45°F)
Dewpoint: 2.0°C (36°F) [RH = 70%]
Pressure (altimeter): 30.41 inches Hg (1030.0 mb)
Winds: from the W (280 degrees) at 14 MPH (12 knots; 6.2 m/s)
Visibility: 6 or more miles (10+ km)
Ceiling: 3500 feet AGL
Clouds: few clouds at 1400 feet AGL
broken clouds at 3500 feet AGL
Weather: -SHRA  (light rain showers)

METAR text: EDDG 260750Z 27009KT 9999 VCSH FEW018TCU SCT030 BKN044 07/02 Q1030 NOSIG
Conditions at: EDDG (MUENSTER/OSNABRU, DE) observed 0750 UTC 26 March 2019
Temperature: 7.0°C (45°F)
Dewpoint: 2.0°C (36°F) [RH = 70%]
Pressure (altimeter): 30.41 inches Hg (1030.0 mb)
Winds: from the W (270 degrees) at 10 MPH (9 knots; 4.6 m/s)
Visibility: 6 or more miles (10+ km)
Ceiling: 4400 feet AGL
Clouds: few clouds at 1800 feet AGL
scattered clouds at 3000 feet AGL
broken clouds at 4400 feet AGL
Weather: VCSH  (showers in vicinity)

METAR text: EDDG 260720Z 26008KT 9999 FEW016 SCT037 BKN048 06/01 Q1030 NOSIG
Conditions at: EDDG (MUENSTER/OSNABRU, DE) observed 0720 UTC 26 March 2019
Temperature: 6.0°C (43°F)
Dewpoint: 1.0°C (34°F) [RH = 70%]
Pressure (altimeter): 30.41 inches Hg (1030.0 mb)
Winds: from the W (260 degrees) at 9 MPH (8 knots; 4.1 m/s)
Visibility: 6 or more miles (10+ km)
Ceiling: 4800 feet AGL
Clouds: few clouds at 1600 feet AGL
scattered clouds at 3700 feet AGL
broken clouds at 4800 feet AGL
Weather: no significant weather observed at this time

METAR text: EDDG 260650Z 26007KT 9999 FEW016 BKN037 05/01 Q1029 NOSIG
Conditions at: EDDG (MUENSTER/OSNABRU, DE) observed 0650 UTC 26 March 2019
Temperature: 5.0°C (41°F)
Dewpoint: 1.0°C (34°F) [RH = 75%]
Pressure (altimeter): 30.38 inches Hg (1029.0 mb)
Winds: from the W (260 degrees) at 8 MPH (7 knots; 3.6 m/s)
Visibility: 6 or more miles (10+ km)
Ceiling: 3700 feet AGL
Clouds: few clouds at 1600 feet AGL
broken clouds at 3700 feet AGL
Weather: no significant weather observed at this time

METAR text: EDDG 260620Z 24007KT 9999 FEW029 BKN038 05/01 Q1029 NOSIG
Conditions at: EDDG (MUENSTER/OSNABRU, DE) observed 0620 UTC 26 March 2019
Temperature: 5.0°C (41°F)
Dewpoint: 1.0°C (34°F) [RH = 75%]
Pressure (altimeter): 30.38 inches Hg (1029.0 mb)
Winds: from the WSW (240 degrees) at 8 MPH (7 knots; 3.6 m/s)
Visibility: 6 or more miles (10+ km)
Ceiling: 3800 feet AGL
Clouds: few clouds at 2900 feet AGL
broken clouds at 3800 feet AGL
Weather: no significant weather observed at this time

METAR text: EDDG 260550Z 24004KT 9999 FEW029 BKN038 05/01 Q1029 NOSIG
Conditions at: EDDG (MUENSTER/OSNABRU, DE) observed 0550 UTC 26 March 2019
Temperature: 5.0°C (41°F)
Dewpoint: 1.0°C (34°F) [RH = 75%]
Pressure (altimeter): 30.38 inches Hg (1029.0 mb)
Winds: from the WSW (240 degrees) at 5 MPH (4 knots; 2.1 m/s)
Visibility: 6 or more miles (10+ km)
Ceiling: 3800 feet AGL
Clouds: few clouds at 2900 feet AGL
broken clouds at 3800 feet AGL
Weather: no significant weather observed at this time

METAR text: EDDG 260520Z 25005KT 9999 FEW030 BKN036 05/01 Q1029 NOSIG
Conditions at: EDDG (MUENSTER/OSNABRU, DE) observed 0520 UTC 26 March 2019
Temperature: 5.0°C (41°F)
Dewpoint: 1.0°C (34°F) [RH = 75%]
Pressure (altimeter): 30.38 inches Hg (1029.0 mb)
Winds: from the WSW (250 degrees) at 6 MPH (5 knots; 2.6 m/s)
Visibility: 6 or more miles (10+ km)
Ceiling: 3600 feet AGL
Clouds: few clouds at 3000 feet AGL
broken clouds at 3600 feet AGL
Weather: no significant weather observed at this time

METAR text: EDDG 260450Z 26004KT 9999 FEW027 BKN033 05/01 Q1029 NOSIG
Conditions at: EDDG (MUENSTER/OSNABRU, DE) observed 0450 UTC 26 March 2019
Temperature: 5.0°C (41°F)
Dewpoint: 1.0°C (34°F) [RH = 75%]
Pressure (altimeter): 30.38 inches Hg (1029.0 mb)
Winds: from the W (260 degrees) at 5 MPH (4 knots; 2.1 m/s)
Visibility: 6 or more miles (10+ km)
Ceiling: 3300 feet AGL
Clouds: few clouds at 2700 feet AGL
broken clouds at 3300 feet AGL
Weather: no significant weather observed at this time

METAR text: EDDG 260420Z 30006KT 270V340 9999 FEW026 BKN031 05/00 Q1029 NOSIG
Conditions at: EDDG (MUENSTER/OSNABRU, DE) observed 0420 UTC 26 March 2019
Temperature: 5.0°C (41°F)
Dewpoint: 0.0°C (32°F) [RH = 70%]
Pressure (altimeter): 30.38 inches Hg (1029.0 mb)
Winds: from the WNW (300 degrees) at 7 MPH (6 knots; 3.1 m/s)
Visibility: 6 or more miles (10+ km)
Ceiling: 3100 feet AGL
Clouds: few clouds at 2600 feet AGL
broken clouds at 3100 feet AGL
Weather: no significant weather observed at this time

METAR text: EDDG 260350Z 28006KT 9999 FEW023 BKN028 05/01 Q1029 NOSIG
Conditions at: EDDG (MUENSTER/OSNABRU, DE) observed 0350 UTC 26 March 2019
Temperature: 5.0°C (41°F)
Dewpoint: 1.0°C (34°F) [RH = 75%]
Pressure (altimeter): 30.38 inches Hg (1029.0 mb)
Winds: from the W (280 degrees) at 7 MPH (6 knots; 3.1 m/s)
Visibility: 6 or more miles (10+ km)
Ceiling: 2800 feet AGL
Clouds: few clouds at 2300 feet AGL
broken clouds at 2800 feet AGL
Weather: no significant weather observed at this time

METAR text: EDDG 260320Z 28007KT 9999 BKN023 05/02 Q1029 NOSIG
Conditions at: EDDG (MUENSTER/OSNABRU, DE) observed 0320 UTC 26 March 2019
Temperature: 5.0°C (41°F)
Dewpoint: 2.0°C (36°F) [RH = 81%]
Pressure (altimeter): 30.38 inches Hg (1029.0 mb)
Winds: from the W (280 degrees) at 8 MPH (7 knots; 3.6 m/s)
Visibility: 6 or more miles (10+ km)
Ceiling: 2300 feet AGL
Clouds: broken clouds at 2300 feet AGL
Weather: no significant weather observed at this time

METAR text: EDDG 260250Z 28006KT 250V310 9999 BKN023 05/01 Q1029 NOSIG
Conditions at: EDDG (MUENSTER/OSNABRU, DE) observed 0250 UTC 26 March 2019
Temperature: 5.0°C (41°F)
Dewpoint: 1.0°C (34°F) [RH = 75%]
Pressure (altimeter): 30.38 inches Hg (1029.0 mb)
Winds: from the W (280 degrees) at 7 MPH (6 knots; 3.1 m/s)
Visibility: 6 or more miles (10+ km)
Ceiling: 2300 feet AGL
Clouds: broken clouds at 2300 feet AGL
Weather: no significant weather observed at this time

METAR text: EDDG 260220Z 29006KT 9999 BKN025 05/02 Q1029 NOSIG
Conditions at: EDDG (MUENSTER/OSNABRU, DE) observed 0220 UTC 26 March 2019
Temperature: 5.0°C (41°F)
Dewpoint: 2.0°C (36°F) [RH = 81%]
Pressure (altimeter): 30.38 inches Hg (1029.0 mb)
Winds: from the WNW (290 degrees) at 7 MPH (6 knots; 3.1 m/s)
Visibility: 6 or more miles (10+ km)
Ceiling: 2500 feet AGL
Clouds: broken clouds at 2500 feet AGL
Weather: no significant weather observed at this time

METAR text: EDDG 260150Z 29006KT 260V330 9999 FEW018 BKN022 05/02 Q1029 NOSIG
Conditions at: EDDG (MUENSTER/OSNABRU, DE) observed 0150 UTC 26 March 2019
Temperature: 5.0°C (41°F)
Dewpoint: 2.0°C (36°F) [RH = 81%]
Pressure (altimeter): 30.38 inches Hg (1029.0 mb)
Winds: from the WNW (290 degrees) at 7 MPH (6 knots; 3.1 m/s)
Visibility: 6 or more miles (10+ km)
Ceiling: 2200 feet AGL
Clouds: few clouds at 1800 feet AGL
broken clouds at 2200 feet AGL
Weather: no significant weather observed at this time

METAR text: EDDG 260120Z 28007KT 260V320 9999 FEW018 BKN022 05/02 Q1029 NOSIG
Conditions at: EDDG (MUENSTER/OSNABRU, DE) observed 0120 UTC 26 March 2019
Temperature: 5.0°C (41°F)
Dewpoint: 2.0°C (36°F) [RH = 81%]
Pressure (altimeter): 30.38 inches Hg (1029.0 mb)
Winds: from the W (280 degrees) at 8 MPH (7 knots; 3.6 m/s)
Visibility: 6 or more miles (10+ km)
Ceiling: 2200 feet AGL
Clouds: few clouds at 1800 feet AGL
broken clouds at 2200 feet AGL
Weather: no significant weather observed at this time

METAR text: EDDG 260050Z 29008KT 9999 FEW015 BKN020 05/02 Q1029 NOSIG
Conditions at: EDDG (MUENSTER/OSNABRU, DE) observed 0050 UTC 26 March 2019
Temperature: 5.0°C (41°F)
Dewpoint: 2.0°C (36°F) [RH = 81%]
Pressure (altimeter): 30.38 inches Hg (1029.0 mb)
Winds: from the WNW (290 degrees) at 9 MPH (8 knots; 4.1 m/s)
Visibility: 6 or more miles (10+ km)
Ceiling: 2000 feet AGL
Clouds: few clouds at 1500 feet AGL
broken clouds at 2000 feet AGL
Weather: no significant weather observed at this time

METAR text: EDDG 260020Z 29007KT 9999 FEW013 BKN018 05/03 Q1029 NOSIG
Conditions at: EDDG (MUENSTER/OSNABRU, DE) observed 0020 UTC 26 March 2019
Temperature: 5.0°C (41°F)
Dewpoint: 3.0°C (37°F) [RH = 87%]
Pressure (altimeter): 30.38 inches Hg (1029.0 mb)
Winds: from the WNW (290 degrees) at 8 MPH (7 knots; 3.6 m/s)
Visibility: 6 or more miles (10+ km)
Ceiling: 1800 feet AGL
Clouds: few clouds at 1300 feet AGL
broken clouds at 1800 feet AGL
Weather: no significant weather observed at this time

METAR text: EDDG 252350Z 29005KT 9999 FEW013 BKN018 05/03 Q1029 NOSIG
Conditions at: EDDG (MUENSTER/OSNABRU, DE) observed 2350 UTC 25 March 2019
Temperature: 5.0°C (41°F)
Dewpoint: 3.0°C (37°F) [RH = 87%]
Pressure (altimeter): 30.38 inches Hg (1029.0 mb)
Winds: from the WNW (290 degrees) at 6 MPH (5 knots; 2.6 m/s)
Visibility: 6 or more miles (10+ km)
Ceiling: 1800 feet AGL
Clouds: few clouds at 1300 feet AGL
broken clouds at 1800 feet AGL
Weather: no significant weather observed at this time

METAR text: EDDG 252320Z 30006KT 270V340 9999 BKN018 05/03 Q1029 NOSIG
Conditions at: EDDG (MUENSTER/OSNABRU, DE) observed 2320 UTC 25 March 2019
Temperature: 5.0°C (41°F)
Dewpoint: 3.0°C (37°F) [RH = 87%]
Pressure (altimeter): 30.38 inches Hg (1029.0 mb)
Winds: from the WNW (300 degrees) at 7 MPH (6 knots; 3.1 m/s)
Visibility: 6 or more miles (10+ km)
Ceiling: 1800 feet AGL
Clouds: broken clouds at 1800 feet AGL
Weather: no significant weather observed at this time

METAR text: EDDG 252250Z 31007KT 280V340 9999 FEW015 05/03 Q1028 NOSIG
Conditions at: EDDG (MUENSTER/OSNABRU, DE) observed 2250 UTC 25 March 2019
Temperature: 5.0°C (41°F)
Dewpoint: 3.0°C (37°F) [RH = 87%]
Pressure (altimeter): 30.35 inches Hg (1028.0 mb)
Winds: from the NW (310 degrees) at 8 MPH (7 knots; 3.6 m/s)
Visibility: 6 or more miles (10+ km)
Ceiling: at least 12,000 feet AGL
Clouds: few clouds at 1500 feet AGL
Weather: no significant weather observed at this time

METAR text: EDDG 252220Z 31007KT 280V010 9999 BKN015 06/03 Q1028 TEMPO BKN013
Conditions at: EDDG (MUENSTER/OSNABRU, DE) observed 2220 UTC 25 March 2019
Temperature: 6.0°C (43°F)
Dewpoint: 3.0°C (37°F) [RH = 81%]
Pressure (altimeter): 30.35 inches Hg (1028.0 mb)
Winds: from the NW (310 degrees) at 8 MPH (7 knots; 3.6 m/s)
Visibility: 6 or more miles (10+ km)
Ceiling: 1500 feet AGL
Clouds: broken clouds at 1500 feet AGL
Weather: no significant weather observed at this time

METAR text: EDDG 252150Z 31007KT 280V340 9999 SCT016 06/03 Q1028 TEMPO BKN013
Conditions at: EDDG (MUENSTER/OSNABRU, DE) observed 2150 UTC 25 March 2019
Temperature: 6.0°C (43°F)
Dewpoint: 3.0°C (37°F) [RH = 81%]
Pressure (altimeter): 30.35 inches Hg (1028.0 mb)
Winds: from the NW (310 degrees) at 8 MPH (7 knots; 3.6 m/s)
Visibility: 6 or more miles (10+ km)
Ceiling: at least 12,000 feet AGL
Clouds: scattered clouds at 1600 feet AGL
Weather: no significant weather observed at this time

METAR text: EDDG 252120Z 30006KT 270V340 9999 SCT016 05/02 Q1027 TEMPO BKN013
Conditions at: EDDG (MUENSTER/OSNABRU, DE) observed 2120 UTC 25 March 2019
Temperature: 5.0°C (41°F)
Dewpoint: 2.0°C (36°F) [RH = 81%]
Pressure (altimeter): 30.32 inches Hg (1027.0 mb)
Winds: from the WNW (300 degrees) at 7 MPH (6 knots; 3.1 m/s)
Visibility: 6 or more miles (10+ km)
Ceiling: at least 12,000 feet AGL
Clouds: scattered clouds at 1600 feet AGL
Weather: no significant weather observed at this time

METAR text: EDDG 252050Z 33007KT 9999 FEW023 05/02 Q1027 NOSIG
Conditions at: EDDG (MUENSTER/OSNABRU, DE) observed 2050 UTC 25 March 2019
Temperature: 5.0°C (41°F)
Dewpoint: 2.0°C (36°F) [RH = 81%]
Pressure (altimeter): 30.32 inches Hg (1027.0 mb)
Winds: from the NNW (330 degrees) at 8 MPH (7 knots; 3.6 m/s)
Visibility: 6 or more miles (10+ km)
Ceiling: at least 12,000 feet AGL
Clouds: few clouds at 2300 feet AGL
Weather: no significant weather observed at this time

METAR text: EDDG 252020Z 32006KT 290V350 9999 FEW025 05/02 Q1027 NOSIG
Conditions at: EDDG (MUENSTER/OSNABRU, DE) observed 2020 UTC 25 March 2019
Temperature: 5.0°C (41°F)
Dewpoint: 2.0°C (36°F) [RH = 81%]
Pressure (altimeter): 30.32 inches Hg (1027.0 mb)
Winds: from the NW (320 degrees) at 7 MPH (6 knots; 3.1 m/s)
Visibility: 6 or more miles (10+ km)
Ceiling: at least 12,000 feet AGL
Clouds: few clouds at 2500 feet AGL
Weather: no significant weather observed at this time

METAR text: EDDG 251950Z 33007KT 9999 FEW025 06/02 Q1026 NOSIG
Conditions at: EDDG (MUENSTER/OSNABRU, DE) observed 1950 UTC 25 March 2019
Temperature: 6.0°C (43°F)
Dewpoint: 2.0°C (36°F) [RH = 75%]
Pressure (altimeter): 30.30 inches Hg (1026.0 mb)
Winds: from the NNW (330 degrees) at 8 MPH (7 knots; 3.6 m/s)
Visibility: 6 or more miles (10+ km)
Ceiling: at least 12,000 feet AGL
Clouds: few clouds at 2500 feet AGL
Weather: no significant weather observed at this time

METAR text: EDDG 251920Z 33009KT 290V350 9999 FEW025 06/02 Q1026 NOSIG
Conditions at: EDDG (MUENSTER/OSNABRU, DE) observed 1920 UTC 25 March 2019
Temperature: 6.0°C (43°F)
Dewpoint: 2.0°C (36°F) [RH = 75%]
Pressure (altimeter): 30.30 inches Hg (1026.0 mb)
Winds: from the NNW (330 degrees) at 10 MPH (9 knots; 4.6 m/s)
Visibility: 6 or more miles (10+ km)
Ceiling: at least 12,000 feet AGL
Clouds: few clouds at 2500 feet AGL
Weather: no significant weather observed at this time

METAR text: EDDG 251850Z 33009KT 9999 FEW025 06/02 Q1025 NOSIG
Conditions at: EDDG (MUENSTER/OSNABRU, DE) observed 1850 UTC 25 March 2019
Temperature: 6.0°C (43°F)
Dewpoint: 2.0°C (36°F) [RH = 75%]
Pressure (altimeter): 30.27 inches Hg (1025.0 mb)
Winds: from the NNW (330 degrees) at 10 MPH (9 knots; 4.6 m/s)
Visibility: 6 or more miles (10+ km)
Ceiling: at least 12,000 feet AGL
Clouds: few clouds at 2500 feet AGL
Weather: no significant weather observed at this time

METAR text: EDDG 251820Z 33009KT 9999 FEW025 BKN040 06/02 Q1024 NOSIG
Conditions at: EDDG (MUENSTER/OSNABRU, DE) observed 1820 UTC 25 March 2019
Temperature: 6.0°C (43°F)
Dewpoint: 2.0°C (36°F) [RH = 75%]
Pressure (altimeter): 30.24 inches Hg (1024.0 mb)
Winds: from the NNW (330 degrees) at 10 MPH (9 knots; 4.6 m/s)
Visibility: 6 or more miles (10+ km)
Ceiling: 4000 feet AGL
Clouds: few clouds at 2500 feet AGL
broken clouds at 4000 feet AGL
Weather: no significant weather observed at this time

METAR text: EDDG 251750Z 33009KT 300V360 9999 FEW025 BKN040 07/02 Q1024 NOSIG
Conditions at: EDDG (MUENSTER/OSNABRU, DE) observed 1750 UTC 25 March 2019
Temperature: 7.0°C (45°F)
Dewpoint: 2.0°C (36°F) [RH = 70%]
Pressure (altimeter): 30.24 inches Hg (1024.0 mb)
Winds: from the NNW (330 degrees) at 10 MPH (9 knots; 4.6 m/s)
Visibility: 6 or more miles (10+ km)
Ceiling: 4000 feet AGL
Clouds: few clouds at 2500 feet AGL
broken clouds at 4000 feet AGL
Weather: no significant weather observed at this time

METAR text: EDDG 251720Z 34011KT 9999 FEW022 SCT040 07/03 Q1023 NOSIG
Conditions at: EDDG (MUENSTER/OSNABRU, DE) observed 1720 UTC 25 March 2019
Temperature: 7.0°C (45°F)
Dewpoint: 3.0°C (37°F) [RH = 76%]
Pressure (altimeter): 30.21 inches Hg (1023.0 mb)
Winds: from the NNW (340 degrees) at 13 MPH (11 knots; 5.7 m/s)
Visibility: 6 or more miles (10+ km)
Ceiling: at least 12,000 feet AGL
Clouds: few clouds at 2200 feet AGL
scattered clouds at 4000 feet AGL
Weather: no significant weather observed at this time

METAR text: EDDG 251650Z 35011KT 9999 FEW022CB SCT040 06/03 Q1023 NOSIG
Conditions at: EDDG (MUENSTER/OSNABRU, DE) observed 1650 UTC 25 March 2019
Temperature: 6.0°C (43°F)
Dewpoint: 3.0°C (37°F) [RH = 81%]
Pressure (altimeter): 30.21 inches Hg (1023.0 mb)
Winds: from the N (350 degrees) at 13 MPH (11 knots; 5.7 m/s)
Visibility: 6 or more miles (10+ km)
Ceiling: at least 12,000 feet AGL
Clouds: few clouds at 2200 feet AGL
scattered clouds at 4000 feet AGL
Weather: no significant weather observed at this time

METAR text: EDDG 251620Z 34010KT 320V020 9999 SCT022CB BKN040 07/04 Q1022 NOSIG
Conditions at: EDDG (MUENSTER/OSNABRU, DE) observed 1620 UTC 25 March 2019
Temperature: 7.0°C (45°F)
Dewpoint: 4.0°C (39°F) [RH = 81%]
Pressure (altimeter): 30.18 inches Hg (1022.0 mb)
Winds: from the NNW (340 degrees) at 12 MPH (10 knots; 5.1 m/s)
Visibility: 6 or more miles (10+ km)
Ceiling: 4000 feet AGL
Clouds: scattered clouds at 2200 feet AGL
broken clouds at 4000 feet AGL
Weather: no significant weather observed at this time

METAR text: EDDG 251550Z 33013G24KT 290V360 9999 -SHRA SCT022CB BKN040 07/04 Q1022 NOSIG
Conditions at: EDDG (MUENSTER/OSNABRU, DE) observed 1550 UTC 25 March 2019
Temperature: 7.0°C (45°F)
Dewpoint: 4.0°C (39°F) [RH = 81%]
Pressure (altimeter): 30.18 inches Hg (1022.0 mb)
Winds: from the NNW (330 degrees) at 15 MPH (13 knots; 6.7 m/s)
gusting to 28 MPH (24 knots; 12.3 m/s)
Visibility: 6 or more miles (10+ km)
Ceiling: 4000 feet AGL
Clouds: scattered clouds at 2200 feet AGL
broken clouds at 4000 feet AGL
Weather: -SHRA  (light rain showers)

METAR text: EDDG 251520Z 33011KT 300V360 9999 SCT022CB BKN030 06/04 Q1021 NOSIG
Conditions at: EDDG (MUENSTER/OSNABRU, DE) observed 1520 UTC 25 March 2019
Temperature: 6.0°C (43°F)
Dewpoint: 4.0°C (39°F) [RH = 87%]
Pressure (altimeter): 30.15 inches Hg (1021.0 mb)
Winds: from the NNW (330 degrees) at 13 MPH (11 knots; 5.7 m/s)
Visibility: 6 or more miles (10+ km)
Ceiling: 3000 feet AGL
Clouds: scattered clouds at 2200 feet AGL
broken clouds at 3000 feet AGL
Weather: no significant weather observed at this time

METAR text: EDDG 251450Z 35012G22KT 300V060 9999 SHRA SCT022CB BKN030 07/04 Q1021 BECMG NSW
Conditions at: EDDG (MUENSTER/OSNABRU, DE) observed 1450 UTC 25 March 2019
Temperature: 7.0°C (45°F)
Dewpoint: 4.0°C (39°F) [RH = 81%]
Pressure (altimeter): 30.15 inches Hg (1021.0 mb)
Winds: from the N (350 degrees) at 14 MPH (12 knots; 6.2 m/s)
gusting to 25 MPH (22 knots; 11.3 m/s)
Visibility: 6 or more miles (10+ km)
Ceiling: 3000 feet AGL
Clouds: scattered clouds at 2200 feet AGL
broken clouds at 3000 feet AGL
Weather: SHRA  (rain showers)

METAR text: EDDG 251420Z 32012KT 280V360 9000 -SHRA SCT022CB BKN030 07/03 Q1020 TEMPO SHRA
Conditions at: EDDG (MUENSTER/OSNABRU, DE) observed 1420 UTC 25 March 2019
Temperature: 7.0°C (45°F)
Dewpoint: 3.0°C (37°F) [RH = 76%]
Pressure (altimeter): 30.12 inches Hg (1020.0 mb)
Winds: from the NW (320 degrees) at 14 MPH (12 knots; 6.2 m/s)
Visibility: 6 miles ( 9 km)
Ceiling: 3000 feet AGL
Clouds: scattered clouds at 2200 feet AGL
broken clouds at 3000 feet AGL
Weather: -SHRA  (light rain showers)

METAR text: EDDG 251350Z 32009KT 270V350 9999 -SHRA SCT018CB BKN025 07/04 Q1020 RESHGS TEMPO SHRA
Conditions at: EDDG (MUENSTER/OSNABRU, DE) observed 1350 UTC 25 March 2019
Temperature: 7.0°C (45°F)
Dewpoint: 4.0°C (39°F) [RH = 81%]
Pressure (altimeter): 30.12 inches Hg (1020.0 mb)
Winds: from the NW (320 degrees) at 10 MPH (9 knots; 4.6 m/s)
Visibility: 6 or more miles (10+ km)
Ceiling: 2500 feet AGL
Clouds: scattered clouds at 1800 feet AGL
broken clouds at 2500 feet AGL
Weather: -SHRA  (light rain showers)

METAR text: EDDG 251320Z 31009KT 280V350 9999 -SHRA BKN025CB BKN030 06/04 Q1020 RETSGS NOSIG
Conditions at: EDDG (MUENSTER/OSNABRU, DE) observed 1320 UTC 25 March 2019
Temperature: 6.0°C (43°F)
Dewpoint: 4.0°C (39°F) [RH = 87%]
Pressure (altimeter): 30.12 inches Hg (1020.0 mb)
Winds: from the NW (310 degrees) at 10 MPH (9 knots; 4.6 m/s)
Visibility: 6 or more miles (10+ km)
Ceiling: 2500 feet AGL
Clouds: broken clouds at 2500 feet AGL
broken clouds at 3000 feet AGL
Weather: -SHRA  (light rain showers)

METAR text: EDDG 251250Z 31011KT 280V360 8000 -SHRA SCT030CB BKN035 07/03 Q1019 TEMPO 32020G30KT 4500 SHGS
Conditions at: EDDG (MUENSTER/OSNABRU, DE) observed 1250 UTC 25 March 2019
Temperature: 7.0°C (45°F)
Dewpoint: 3.0°C (37°F) [RH = 76%]
Pressure (altimeter): 30.09 inches Hg (1019.0 mb)
Winds: from the NW (310 degrees) at 13 MPH (11 knots; 5.7 m/s)
Visibility: 5 miles ( 8 km)
Ceiling: 3500 feet AGL
Clouds: scattered clouds at 3000 feet AGL
broken clouds at 3500 feet AGL
Weather: -SHRA  (light rain showers)

METAR text: EDDG 251220Z 32018KT 290V350 9999 -SHRA FEW028CB BKN035 07/02 Q1019 NOSIG
Conditions at: EDDG (MUENSTER/OSNABRU, DE) observed 1220 UTC 25 March 2019
Temperature: 7.0°C (45°F)
Dewpoint: 2.0°C (36°F) [RH = 70%]
Pressure (altimeter): 30.09 inches Hg (1019.0 mb)
Winds: from the NW (320 degrees) at 21 MPH (18 knots; 9.3 m/s)
Visibility: 6 or more miles (10+ km)
Ceiling: 3500 feet AGL
Clouds: few clouds at 2800 feet AGL
broken clouds at 3500 feet AGL
Weather: -SHRA  (light rain showers)

METAR text: EDDG 251150Z 31016KT 260V340 9999 FEW018CB 08/02 Q1019 NOSIG
Conditions at: EDDG (MUENSTER/OSNABRU, DE) observed 1150 UTC 25 March 2019
Temperature: 8.0°C (46°F)
Dewpoint: 2.0°C (36°F) [RH = 66%]
Pressure (altimeter): 30.09 inches Hg (1019.0 mb)
Winds: from the NW (310 degrees) at 18 MPH (16 knots; 8.2 m/s)
Visibility: 6 or more miles (10+ km)
Ceiling: at least 12,000 feet AGL
Clouds: few clouds at 1800 feet AGL
Weather: no significant weather observed at this time

METAR text: EDDG 251120Z 31017G28KT 280V350 9999 -SHRA FEW009 FEW017CB SCT030 07/02 Q1019 NOSIG
Conditions at: EDDG (MUENSTER/OSNABRU, DE) observed 1120 UTC 25 March 2019
Temperature: 7.0°C (45°F)
Dewpoint: 2.0°C (36°F) [RH = 70%]
Pressure (altimeter): 30.09 inches Hg (1019.0 mb)
Winds: from the NW (310 degrees) at 20 MPH (17 knots; 8.7 m/s)
gusting to 32 MPH (28 knots; 14.4 m/s)
Visibility: 6 or more miles (10+ km)
Ceiling: at least 12,000 feet AGL
Clouds: few clouds at 900 feet AGL
few clouds at 1700 feet AGL
scattered clouds at 3000 feet AGL
Weather: -SHRA  (light rain showers)

METAR text: EDDG 251050Z 33016G29KT 280V010 9999 -SHRA FEW009 FEW017CB SCT030 06/03 Q1019 NOSIG
Conditions at: EDDG (MUENSTER/OSNABRU, DE) observed 1050 UTC 25 March 2019
Temperature: 6.0°C (43°F)
Dewpoint: 3.0°C (37°F) [RH = 81%]
Pressure (altimeter): 30.09 inches Hg (1019.0 mb)
Winds: from the NNW (330 degrees) at 18 MPH (16 knots; 8.2 m/s)
gusting to 33 MPH (29 knots; 14.9 m/s)
Visibility: 6 or more miles (10+ km)
Ceiling: at least 12,000 feet AGL
Clouds: few clouds at 900 feet AGL
few clouds at 1700 feet AGL
scattered clouds at 3000 feet AGL
Weather: -SHRA  (light rain showers)

METAR text: EDDG 251020Z 32012KT 280V350 8000 FEW009 FEW017CB SCT024 06/03 Q1019 RESHRA NOSIG
Conditions at: EDDG (MUENSTER/OSNABRU, DE) observed 1020 UTC 25 March 2019
Temperature: 6.0°C (43°F)
Dewpoint: 3.0°C (37°F) [RH = 81%]
Pressure (altimeter): 30.09 inches Hg (1019.0 mb)
Winds: from the NW (320 degrees) at 14 MPH (12 knots; 6.2 m/s)
Visibility: 5 miles ( 8 km)
Ceiling: at least 12,000 feet AGL
Clouds: few clouds at 900 feet AGL
few clouds at 1700 feet AGL
scattered clouds at 2400 feet AGL
Weather: no significant weather observed at this time

METAR text: EDDG 250950Z 31013G24KT 280V360 8000 -SHRA FEW009 SCT018CB BKN024 06/03 Q1018 NOSIG
Conditions at: EDDG (MUENSTER/OSNABRU, DE) observed 0950 UTC 25 March 2019
Temperature: 6.0°C (43°F)
Dewpoint: 3.0°C (37°F) [RH = 81%]
Pressure (altimeter): 30.06 inches Hg (1018.0 mb)
Winds: from the NW (310 degrees) at 15 MPH (13 knots; 6.7 m/s)
gusting to 28 MPH (24 knots; 12.3 m/s)
Visibility: 5 miles ( 8 km)
Ceiling: 2400 feet AGL
Clouds: few clouds at 900 feet AGL
scattered clouds at 1800 feet AGL
broken clouds at 2400 feet AGL
Weather: -SHRA  (light rain showers)

METAR text: EDDG 250920Z 30013G24KT 270V330 9999 -SHRA FEW016CB BKN020 06/03 Q1018 NOSIG
Conditions at: EDDG (MUENSTER/OSNABRU, DE) observed 0920 UTC 25 March 2019
Temperature: 6.0°C (43°F)
Dewpoint: 3.0°C (37°F) [RH = 81%]
Pressure (altimeter): 30.06 inches Hg (1018.0 mb)
Winds: from the WNW (300 degrees) at 15 MPH (13 knots; 6.7 m/s)
gusting to 28 MPH (24 knots; 12.3 m/s)
Visibility: 6 or more miles (10+ km)
Ceiling: 2000 feet AGL
Clouds: few clouds at 1600 feet AGL
broken clouds at 2000 feet AGL
Weather: -SHRA  (light rain showers)

METAR text: EDDG 250850Z 28014KT 250V320 9999 -SHRA FEW016CB BKN020 06/02 Q1017 TEMPO 29015G25KT
Conditions at: EDDG (MUENSTER/OSNABRU, DE) observed 0850 UTC 25 March 2019
Temperature: 6.0°C (43°F)
Dewpoint: 2.0°C (36°F) [RH = 75%]
Pressure (altimeter): 30.03 inches Hg (1017.0 mb)
Winds: from the W (280 degrees) at 16 MPH (14 knots; 7.2 m/s)
Visibility: 6 or more miles (10+ km)
Ceiling: 2000 feet AGL
Clouds: few clouds at 1600 feet AGL
broken clouds at 2000 feet AGL
Weather: -SHRA  (light rain showers)

METAR text: EDDG 250820Z 29013KT 250V320 9999 FEW016CB BKN019 06/02 Q1017 TEMPO 29015G25KT
Conditions at: EDDG (MUENSTER/OSNABRU, DE) observed 0820 UTC 25 March 2019
Temperature: 6.0°C (43°F)
Dewpoint: 2.0°C (36°F) [RH = 75%]
Pressure (altimeter): 30.03 inches Hg (1017.0 mb)
Winds: from the WNW (290 degrees) at 15 MPH (13 knots; 6.7 m/s)
Visibility: 6 or more miles (10+ km)
Ceiling: 1900 feet AGL
Clouds: few clouds at 1600 feet AGL
broken clouds at 1900 feet AGL
Weather: no significant weather observed at this time

METAR text: EDDG 250750Z 27014KT 9999 FEW013 SCT016CB BKN030 05/03 Q1017 TEMPO 29015G25KT
Conditions at: EDDG (MUENSTER/OSNABRU, DE) observed 0750 UTC 25 March 2019
Temperature: 5.0°C (41°F)
Dewpoint: 3.0°C (37°F) [RH = 87%]
Pressure (altimeter): 30.03 inches Hg (1017.0 mb)
Winds: from the W (270 degrees) at 16 MPH (14 knots; 7.2 m/s)
Visibility: 6 or more miles (10+ km)
Ceiling: 3000 feet AGL
Clouds: few clouds at 1300 feet AGL
scattered clouds at 1600 feet AGL
broken clouds at 3000 feet AGL
Weather: no significant weather observed at this time

METAR text: EDDG 250720Z 25011KT 9999 -SHRA FEW013 FEW016CB BKN048 05/03 Q1017 NOSIG
Conditions at: EDDG (MUENSTER/OSNABRU, DE) observed 0720 UTC 25 March 2019
Temperature: 5.0°C (41°F)
Dewpoint: 3.0°C (37°F) [RH = 87%]
Pressure (altimeter): 30.03 inches Hg (1017.0 mb)
Winds: from the WSW (250 degrees) at 13 MPH (11 knots; 5.7 m/s)
Visibility: 6 or more miles (10+ km)
Ceiling: 4800 feet AGL
Clouds: few clouds at 1300 feet AGL
few clouds at 1600 feet AGL
broken clouds at 4800 feet AGL
Weather: -SHRA  (light rain showers)

METAR text: EDDG 250650Z 26015KT 9999 -SHRA FEW015 SCT022CB BKN035 04/02 Q1017 TEMPO 29015G25KT
Conditions at: EDDG (MUENSTER/OSNABRU, DE) observed 0650 UTC 25 March 2019
Temperature: 4.0°C (39°F)
Dewpoint: 2.0°C (36°F) [RH = 87%]
Pressure (altimeter): 30.03 inches Hg (1017.0 mb)
Winds: from the W (260 degrees) at 17 MPH (15 knots; 7.7 m/s)
Visibility: 6 or more miles (10+ km)
Ceiling: 3500 feet AGL
Clouds: few clouds at 1500 feet AGL
scattered clouds at 2200 feet AGL
broken clouds at 3500 feet AGL
Weather: -SHRA  (light rain showers)

METAR text: EDDG 250620Z 25011KT 9999 FEW025CB SCT040 04/02 Q1017 NOSIG
Conditions at: EDDG (MUENSTER/OSNABRU, DE) observed 0620 UTC 25 March 2019
Temperature: 4.0°C (39°F)
Dewpoint: 2.0°C (36°F) [RH = 87%]
Pressure (altimeter): 30.03 inches Hg (1017.0 mb)
Winds: from the WSW (250 degrees) at 13 MPH (11 knots; 5.7 m/s)
Visibility: 6 or more miles (10+ km)
Ceiling: at least 12,000 feet AGL
Clouds: few clouds at 2500 feet AGL
scattered clouds at 4000 feet AGL
Weather: no significant weather observed at this time

METAR text: EDDG 250550Z 25009KT 9999 FEW023TCU SCT048 04/02 Q1017 NOSIG
Conditions at: EDDG (MUENSTER/OSNABRU, DE) observed 0550 UTC 25 March 2019
Temperature: 4.0°C (39°F)
Dewpoint: 2.0°C (36°F) [RH = 87%]
Pressure (altimeter): 30.03 inches Hg (1017.0 mb)
Winds: from the WSW (250 degrees) at 10 MPH (9 knots; 4.6 m/s)
Visibility: 6 or more miles (10+ km)
Ceiling: at least 12,000 feet AGL
Clouds: few clouds at 2300 feet AGL
scattered clouds at 4800 feet AGL
Weather: no significant weather observed at this time

METAR text: EDDG 250520Z 26008KT 9999 SCT035 03/01 Q1017 NOSIG
Conditions at: EDDG (MUENSTER/OSNABRU, DE) observed 0520 UTC 25 March 2019
Temperature: 3.0°C (37°F)
Dewpoint: 1.0°C (34°F) [RH = 87%]
Pressure (altimeter): 30.03 inches Hg (1017.0 mb)
Winds: from the W (260 degrees) at 9 MPH (8 knots; 4.1 m/s)
Visibility: 6 or more miles (10+ km)
Ceiling: at least 12,000 feet AGL
Clouds: scattered clouds at 3500 feet AGL
Weather: no significant weather observed at this time

METAR text: EDDG 250450Z 27011KT CAVOK 03/01 Q1018 NOSIG
Conditions at: EDDG (MUENSTER/OSNABRU, DE) observed 0450 UTC 25 March 2019
Temperature: 3.0°C (37°F)
Dewpoint: 1.0°C (34°F) [RH = 87%]
Pressure (altimeter): 30.06 inches Hg (1018.0 mb)
Winds: from the W (270 degrees) at 13 MPH (11 knots; 5.7 m/s)
Visibility: 6 or more miles (10+ km)
Ceiling: ceiling and visibility are OK
Clouds: unknown
Weather: no significant weather observed at this time

METAR text: EDDG 250420Z 25009KT 9999 FEW040 03/02 Q1017 NOSIG
Conditions at: EDDG (MUENSTER/OSNABRU, DE) observed 0420 UTC 25 March 2019
Temperature: 3.0°C (37°F)
Dewpoint: 2.0°C (36°F) [RH = 93%]
Pressure (altimeter): 30.03 inches Hg (1017.0 mb)
Winds: from the WSW (250 degrees) at 10 MPH (9 knots; 4.6 m/s)
Visibility: 6 or more miles (10+ km)
Ceiling: at least 12,000 feet AGL
Clouds: few clouds at 4000 feet AGL
Weather: no significant weather observed at this time

METAR text: EDDG 250350Z 27009KT 9999 FEW016 SCT040 03/02 Q1017 NOSIG
Conditions at: EDDG (MUENSTER/OSNABRU, DE) observed 0350 UTC 25 March 2019
Temperature: 3.0°C (37°F)
Dewpoint: 2.0°C (36°F) [RH = 93%]
Pressure (altimeter): 30.03 inches Hg (1017.0 mb)
Winds: from the W (270 degrees) at 10 MPH (9 knots; 4.6 m/s)
Visibility: 6 or more miles (10+ km)
Ceiling: at least 12,000 feet AGL
Clouds: few clouds at 1600 feet AGL
scattered clouds at 4000 feet AGL
Weather: no significant weather observed at this time

METAR text: EDDG 250320Z 30009KT 250V340 9999 -RA FEW014 BKN023 04/02 Q1018 TEMPO RA
Conditions at: EDDG (MUENSTER/OSNABRU, DE) observed 0320 UTC 25 March 2019
Temperature: 4.0°C (39°F)
Dewpoint: 2.0°C (36°F) [RH = 87%]
Pressure (altimeter): 30.06 inches Hg (1018.0 mb)
Winds: from the WNW (300 degrees) at 10 MPH (9 knots; 4.6 m/s)
Visibility: 6 or more miles (10+ km)
Ceiling: 2300 feet AGL
Clouds: few clouds at 1400 feet AGL
broken clouds at 2300 feet AGL
Weather: -RA  (light rain)

METAR text: EDDG 250250Z 27018G30KT 9999 -RA FEW024 BKN028 06/02 Q1017 TEMPO RA
Conditions at: EDDG (MUENSTER/OSNABRU, DE) observed 0250 UTC 25 March 2019
Temperature: 6.0°C (43°F)
Dewpoint: 2.0°C (36°F) [RH = 75%]
Pressure (altimeter): 30.03 inches Hg (1017.0 mb)
Winds: from the W (270 degrees) at 21 MPH (18 knots; 9.3 m/s)
gusting to 34 MPH (30 knots; 15.4 m/s)
Visibility: 6 or more miles (10+ km)
Ceiling: 2800 feet AGL
Clouds: few clouds at 2400 feet AGL
broken clouds at 2800 feet AGL
Weather: -RA  (light rain)

METAR text: EDDG 250220Z 24013KT 9999 BKN026 06/01 Q1017 TEMPO RA
Conditions at: EDDG (MUENSTER/OSNABRU, DE) observed 0220 UTC 25 March 2019
Temperature: 6.0°C (43°F)
Dewpoint: 1.0°C (34°F) [RH = 70%]
Pressure (altimeter): 30.03 inches Hg (1017.0 mb)
Winds: from the WSW (240 degrees) at 15 MPH (13 knots; 6.7 m/s)
Visibility: 6 or more miles (10+ km)
Ceiling: 2600 feet AGL
Clouds: broken clouds at 2600 feet AGL
Weather: no significant weather observed at this time

METAR text: EDDG 250150Z 24012KT 9999 BKN030 06/00 Q1018 NOSIG
Conditions at: EDDG (MUENSTER/OSNABRU, DE) observed 0150 UTC 25 March 2019
Temperature: 6.0°C (43°F)
Dewpoint: 0.0°C (32°F) [RH = 65%]
Pressure (altimeter): 30.06 inches Hg (1018.0 mb)
Winds: from the WSW (240 degrees) at 14 MPH (12 knots; 6.2 m/s)
Visibility: 6 or more miles (10+ km)
Ceiling: 3000 feet AGL
Clouds: broken clouds at 3000 feet AGL
Weather: no significant weather observed at this time

METAR text: EDDG 250120Z 23012KT 9999 BKN037 05/00 Q1018 NOSIG
Conditions at: EDDG (MUENSTER/OSNABRU, DE) observed 0120 UTC 25 March 2019
Temperature: 5.0°C (41°F)
Dewpoint: 0.0°C (32°F) [RH = 70%]
Pressure (altimeter): 30.06 inches Hg (1018.0 mb)
Winds: from the SW (230 degrees) at 14 MPH (12 knots; 6.2 m/s)
Visibility: 6 or more miles (10+ km)
Ceiling: 3700 feet AGL
Clouds: broken clouds at 3700 feet AGL
Weather: no significant weather observed at this time

METAR text: EDDG 250050Z 23010KT 9999 BKN044 05/M00 Q1019 NOSIG
Conditions at: EDDG (MUENSTER/OSNABRU, DE) observed 0050 UTC 25 March 2019
Temperature: 5.0°C (41°F)
Dewpoint: 0.0°C (32°F) [RH = 70%]
Pressure (altimeter): 30.09 inches Hg (1019.0 mb)
Winds: from the SW (230 degrees) at 12 MPH (10 knots; 5.1 m/s)
Visibility: 6 or more miles (10+ km)
Ceiling: 4400 feet AGL
Clouds: broken clouds at 4400 feet AGL
Weather: no significant weather observed at this time

METAR text: EDDG 250020Z 23009KT 9999 BKN044 05/M00 Q1020 NOSIG
Conditions at: EDDG (MUENSTER/OSNABRU, DE) observed 0020 UTC 25 March 2019
Temperature: 5.0°C (41°F)
Dewpoint: 0.0°C (32°F) [RH = 70%]
Pressure (altimeter): 30.12 inches Hg (1020.0 mb)
Winds: from the SW (230 degrees) at 10 MPH (9 knots; 4.6 m/s)
Visibility: 6 or more miles (10+ km)
Ceiling: 4400 feet AGL
Clouds: broken clouds at 4400 feet AGL
Weather: no significant weather observed at this time

Forecast for: EDDG (MUENSTER/OSNABRU, DE)
Text: TAF EDDG 261100Z 2612/2712 28010KT 9999 BKN030
Forecast period: 1200 to 2100 UTC 26 March 2019
Forecast type: FROM: standard forecast or significant change
Winds: from the W (280 degrees) at 12 MPH (10 knots; 5.1 m/s)
Visibility: 6 or more miles 10+ km)
Ceiling: 3000 feet AGL
Clouds: broken clouds at 3000 feet AGL
Weather: no significant weather forecast for this period
Text: BECMG 2621/2624 VRB03KT
Forecast period: 2100 UTC 26 March 2019 to 0000 UTC 27 March 2019
Forecast type: BECOMING: Conditions expected to become as follows by 0000 UTC 27 March 2019
Winds: variable direction winds at 3 MPH (3 knots; 1.5 m/s)
Visibility: 6 or more miles 10+ km)
Ceiling: 3000 feet AGL
Clouds: broken clouds at 3000 feet AGL
Weather: no significant weather forecast for this period
Text: BECMG 2700/2703 BKN010
Forecast period: 0000 to 0700 UTC 27 March 2019
Forecast type: BECOMING: Conditions expected to become as follows by 0300 UTC 27 March 2019
Winds: variable direction winds at 3 MPH (3 knots; 1.5 m/s)
Visibility: 6 or more miles 10+ km)
Ceiling: 1000 feet AGL
Clouds: broken clouds at 1000 feet AGL
Weather: no significant weather forecast for this period
Text: TEMPO 2703/2707 4000 BR BKN007
Forecast period: 0300 to 0700 UTC 27 March 2019
Forecast type: TEMPORARY: The following changes expected for less than half the time period
Visibility: 2.49 miles (4.01 km)
Ceiling: 700 feet AGL
Clouds: broken clouds at 700 feet AGL
Weather: BR  (mist)
Text: BECMG 2707/2710 26007KT BKN025
Forecast period: 0700 to 1200 UTC 27 March 2019
Forecast type: BECOMING: Conditions expected to become as follows by 1000 UTC 27 March 2019
Winds: from the W (260 degrees) at 8 MPH (7 knots; 3.6 m/s)
Visibility: 6 or more miles 10+ km)
Ceiling: 2500 feet AGL
Clouds: broken clouds at 2500 feet AGL
Weather: no significant weather forecast for this period